Time;durP1;ratioP1;P1;durP2;ratioP2;P2;SDS_P1;SDS_P2;PMS_P1;PMS_P2;Temp;Humidity;BMP_temperature;BMP_pressure;BME280_temperature;BME280_humidity;BME280_pressure;Samples;Min_cycle;Max_cycle;Signal;HPM_P1;HPM_P2
2022/11/26 00:00:19;;;;;;;20.33;4.10;;;4.60;99.90;;;;;;5057915;28;20044;-78
2022/11/26 00:02:46;;;;;;;20.42;4.25;;;4.60;99.90;;;;;;5069331;28;20045;-78
2022/11/26 00:05:15;;;;;;;20.45;4.18;;;4.60;99.90;;;;;;5088978;28;20051;-78
2022/11/26 00:07:44;;;;;;;18.08;4.47;;;4.60;99.90;;;;;;5056604;28;20435;-78
2022/11/26 00:10:26;;;;;;;17.45;4.25;;;4.60;99.90;;;;;;5092968;28;20041;-79
2022/11/26 00:12:52;;;;;;;16.40;4.65;;;4.50;99.90;;;;;;5071190;28;20048;-78
2022/11/26 00:15:21;;;;;;;13.48;4.15;;;4.50;99.90;;;;;;5060363;28;20060;-78
2022/11/26 00:17:48;;;;;;;18.30;4.30;;;4.50;99.90;;;;;;5072942;28;20119;-78
2022/11/26 00:20:15;;;;;;;19.48;4.57;;;4.50;99.90;;;;;;5054471;28;20068;-78
2022/11/26 00:22:54;;;;;;;13.40;4.10;;;4.50;99.90;;;;;;5087790;28;20087;-78
2022/11/26 00:25:26;;;;;;;17.20;4.55;;;4.50;99.90;;;;;;5070540;28;20048;-79
2022/11/26 00:27:53;;;;;;;21.05;4.32;;;4.50;99.90;;;;;;5057145;28;20498;-78
2022/11/26 00:30:24;;;;;;;11.15;3.65;;;4.40;99.90;;;;;;5073672;28;20056;-78
2022/11/26 00:32:51;;;;;;;13.35;4.15;;;4.40;99.90;;;;;;5065073;28;20102;-78
2022/11/26 00:35:17;;;;;;;16.58;4.20;;;4.40;99.90;;;;;;5095992;28;20049;-78
2022/11/26 00:37:47;;;;;;;21.65;4.43;;;4.40;99.90;;;;;;5089677;28;20084;-78
2022/11/26 00:40:25;;;;;;;16.02;4.50;;;4.40;99.90;;;;;;5073644;28;20167;-78
2022/11/26 00:42:52;;;;;;;14.45;4.70;;;4.40;99.90;;;;;;5074409;28;20047;-78
2022/11/26 00:45:27;;;;;;;17.52;4.43;;;4.40;99.90;;;;;;5078220;28;20052;-78
2022/11/26 00:47:53;;;;;;;21.15;4.25;;;4.40;99.90;;;;;;5060789;28;20048;-78
2022/11/26 00:50:27;;;;;;;18.52;4.82;;;4.40;99.90;;;;;;5070493;28;20386;-78
2022/11/26 00:52:55;;;;;;;21.60;4.63;;;4.40;99.90;;;;;;5065055;28;20119;-78
2022/11/26 00:55:39;;;;;;;14.27;4.45;;;4.40;99.90;;;;;;5072650;28;20488;-81
2022/11/26 00:58:10;;;;;;;18.67;4.95;;;4.40;99.90;;;;;;5073310;28;20097;-78
2022/11/26 01:00:35;;;;;;;27.98;4.65;;;4.40;99.90;;;;;;5074531;28;20051;-78
2022/11/26 01:03:02;;;;;;;13.10;5.43;;;4.40;99.90;;;;;;5072198;28;20194;-78
2022/11/26 01:05:32;;;;;;;19.95;4.72;;;4.40;99.90;;;;;;5072829;28;20053;-78
2022/11/26 01:08:01;;;;;;;16.45;4.95;;;4.40;99.90;;;;;;5086900;28;20132;-77
2022/11/26 01:10:29;;;;;;;17.90;5.38;;;4.40;99.90;;;;;;5059324;28;20456;-78
2022/11/26 01:12:55;;;;;;;17.40;5.28;;;4.40;99.90;;;;;;5072593;28;20544;-78
2022/11/26 01:15:22;;;;;;;23.90;4.90;;;4.50;99.90;;;;;;5073529;28;20071;-78
2022/11/26 01:17:48;;;;;;;24.23;4.90;;;4.40;99.90;;;;;;5071643;28;20049;-79
2022/11/26 01:20:23;;;;;;;13.02;4.45;;;4.30;99.90;;;;;;5073190;28;20357;-78
2022/11/26 01:22:50;;;;;;;18.55;5.05;;;4.30;99.90;;;;;;5072749;28;20041;-78
2022/11/26 01:25:17;;;;;;;16.98;4.40;;;4.30;99.90;;;;;;5074026;28;20044;-78
2022/11/26 01:27:43;;;;;;;27.55;5.75;;;4.30;99.90;;;;;;5065027;28;20037;-78
2022/11/26 01:30:24;;;;;;;23.65;5.20;;;4.40;99.90;;;;;;5078172;28;20445;-78
2022/11/26 01:32:50;;;;;;;16.65;4.30;;;4.40;99.90;;;;;;5076251;28;20056;-78
2022/11/26 01:35:18;;;;;;;17.63;5.07;;;4.40;99.90;;;;;;5064954;28;20052;-78
2022/11/26 01:37:45;;;;;;;24.42;5.63;;;4.40;99.90;;;;;;5069035;28;20063;-81
2022/11/26 01:40:49;;;;;;;30.63;5.00;;;4.30;99.90;;;;;;5070161;28;20048;-78
2022/11/26 01:43:23;;;;;;;24.80;4.95;;;4.40;99.90;;;;;;5060312;28;20051;-78
2022/11/26 01:45:49;;;;;;;18.83;4.40;;;4.30;99.90;;;;;;5086669;28;20451;-78
2022/11/26 01:48:30;;;;;;;24.10;4.97;;;4.20;99.90;;;;;;5054494;28;20040;-78
2022/11/26 01:51:05;;;;;;;27.33;5.50;;;4.20;99.90;;;;;;5061687;28;20448;-78
2022/11/26 01:53:37;;;;;;;26.13;5.27;;;4.40;99.90;;;;;;5067907;28;20045;-78
2022/11/26 01:56:26;;;;;;;21.63;5.90;;;4.40;99.90;;;;;;5068958;28;20049;-78
2022/11/26 01:59:08;;;;;;;29.45;5.13;;;4.40;99.90;;;;;;5056326;28;20053;-78
2022/11/26 02:01:34;;;;;;;25.90;4.97;;;4.50;99.90;;;;;;5053218;28;20452;-79
2022/11/26 02:04:17;;;;;;;24.90;4.72;;;4.40;99.90;;;;;;5073188;28;20044;-78
2022/11/26 02:06:45;;;;;;;25.73;5.43;;;4.50;99.90;;;;;;5055692;28;20116;-78
2022/11/26 02:09:12;;;;;;;25.73;5.65;;;4.50;99.90;;;;;;5056248;28;20041;-78
2022/11/26 02:11:38;;;;;;;19.00;4.68;;;4.50;99.90;;;;;;5087938;28;20048;-79
2022/11/26 02:14:19;;;;;;;27.30;5.43;;;4.60;99.90;;;;;;5067659;28;20400;-78
2022/11/26 02:17:23;;;;;;;27.13;6.03;;;4.60;99.90;;;;;;5060520;28;20045;-78
2022/11/26 02:20:45;;;;;;;23.55;5.10;;;4.60;99.90;;;;;;5054486;28;20041;-78
2022/11/26 02:23:20;;;;;;;26.50;5.32;;;4.60;99.90;;;;;;5079407;28;20128;-78
2022/11/26 02:25:58;;;;;;;28.77;5.53;;;4.70;99.90;;;;;;5051197;28;20497;-77
2022/11/26 02:28:54;;;;;;;25.85;5.10;;;4.60;99.90;;;;;;5056944;28;20397;-78
2022/11/26 02:31:39;;;;;;;27.60;5.87;;;4.60;99.90;;;;;;5051851;28;20345;-78
2022/11/26 02:34:18;;;;;;;17.73;5.10;;;4.60;99.90;;;;;;5035466;28;20378;-79
2022/11/26 02:36:58;;;;;;;25.08;5.63;;;4.60;99.90;;;;;;5035434;28;20056;-78
2022/11/26 02:39:26;;;;;;;21.00;5.22;;;4.60;99.90;;;;;;5051798;28;20049;-77
2022/11/26 02:41:54;;;;;;;20.90;5.00;;;4.70;99.90;;;;;;5053168;28;20516;-78
2022/11/26 02:44:29;;;;;;;29.85;6.13;;;4.60;99.90;;;;;;5052893;28;20080;-78
2022/11/26 02:47:06;;;;;;;31.13;5.78;;;4.60;99.90;;;;;;5053038;28;20053;-78
2022/11/26 02:49:33;;;;;;;25.25;5.80;;;4.50;99.90;;;;;;5053088;28;20061;-78
2022/11/26 02:52:01;;;;;;;23.85;5.03;;;4.60;99.90;;;;;;5058558;28;20087;-78
2022/11/26 02:54:29;;;;;;;31.70;6.40;;;4.60;99.90;;;;;;5062283;28;20088;-78
2022/11/26 02:56:56;;;;;;;29.85;6.18;;;4.70;99.90;;;;;;5085168;28;20146;-78
2022/11/26 02:59:21;;;;;;;31.10;6.35;;;4.70;99.90;;;;;;5055299;28;20040;-78
2022/11/26 03:01:53;;;;;;;24.95;5.28;;;4.60;99.90;;;;;;5071723;28;20048;-78
2022/11/26 03:04:23;;;;;;;29.25;6.20;;;4.70;99.90;;;;;;5070027;28;20140;-78
2022/11/26 03:06:50;;;;;;;32.38;7.47;;;4.70;99.90;;;;;;5052710;28;20092;-78
2022/11/26 03:09:17;;;;;;;26.67;6.65;;;4.70;99.90;;;;;;5071529;28;20052;-77
2022/11/26 03:11:43;;;;;;;26.95;6.65;;;4.80;99.90;;;;;;5061163;28;20037;-78
2022/11/26 03:14:09;;;;;;;24.70;6.55;;;4.80;99.90;;;;;;5054733;28;20044;-77
2022/11/26 03:16:35;;;;;;;25.90;5.60;;;4.80;99.90;;;;;;5073088;28;20091;-77
2022/11/26 03:19:00;;;;;;;27.48;5.80;;;4.80;99.90;;;;;;5070916;28;20053;-77
2022/11/26 03:21:26;;;;;;;35.95;6.38;;;4.90;99.90;;;;;;5054081;28;20049;-77
2022/11/26 03:23:52;;;;;;;36.70;6.10;;;4.90;99.90;;;;;;5098053;28;20595;-77
2022/11/26 03:26:18;;;;;;;30.58;6.35;;;4.90;99.90;;;;;;5052921;28;20049;-78
2022/11/26 03:28:43;;;;;;;24.88;5.95;;;4.80;99.90;;;;;;5098616;28;20045;-78
2022/11/26 03:31:09;;;;;;;30.90;5.82;;;4.80;99.90;;;;;;5074734;28;20064;-77
2022/11/26 03:33:35;;;;;;;30.80;6.28;;;4.90;99.90;;;;;;5075120;28;20058;-77
2022/11/26 03:36:00;;;;;;;27.25;6.07;;;5.00;99.90;;;;;;5074971;28;20106;-77
2022/11/26 03:38:26;;;;;;;33.55;5.57;;;5.00;99.90;;;;;;5057344;28;20481;-77
2022/11/26 03:41:00;;;;;;;33.58;7.07;;;5.10;99.90;;;;;;5071537;28;20045;-77
2022/11/26 03:43:26;;;;;;;35.50;6.43;;;5.10;99.90;;;;;;5049358;28;20119;-77
2022/11/26 03:45:52;;;;;;;32.55;6.18;;;5.20;99.90;;;;;;5072895;28;20190;-77
2022/11/26 03:48:17;;;;;;;30.98;6.25;;;5.20;99.90;;;;;;5075149;28;20489;-84
2022/11/26 03:50:43;;;;;;;27.30;6.38;;;5.20;99.90;;;;;;5070616;28;20044;-85
2022/11/26 03:53:09;;;;;;;28.33;6.53;;;5.30;99.90;;;;;;5071785;28;20060;-78
2022/11/26 03:55:35;;;;;;;31.55;5.95;;;5.30;99.90;;;;;;5083824;28;20048;-77
2022/11/26 03:58:00;;;;;;;30.13;6.22;;;5.30;99.90;;;;;;5058777;28;20075;-78
2022/11/26 04:00:26;;;;;;;34.88;6.00;;;5.30;99.90;;;;;;5071559;28;20144;-77
2022/11/26 04:02:52;;;;;;;30.38;6.13;;;5.30;99.90;;;;;;5071118;28;20049;-78
2022/11/26 04:05:18;;;;;;;33.40;6.75;;;5.30;99.90;;;;;;5072370;28;20102;-77
2022/11/26 04:07:44;;;;;;;29.23;6.65;;;5.30;99.90;;;;;;5062394;28;20095;-77
2022/11/26 04:10:10;;;;;;;24.75;6.25;;;5.30;99.90;;;;;;5055335;28;20076;-77
2022/11/26 04:12:35;;;;;;;28.10;6.15;;;5.20;99.90;;;;;;5081730;28;20045;-77
2022/11/26 04:15:02;;;;;;;39.22;7.13;;;5.20;99.90;;;;;;5076377;28;20489;-78
2022/11/26 04:17:27;;;;;;;28.70;7.32;;;5.20;99.90;;;;;;5070999;28;20060;-78
2022/11/26 04:19:53;;;;;;;35.95;6.70;;;5.30;99.90;;;;;;5059180;28;20045;-77
2022/11/26 04:22:19;;;;;;;33.47;7.10;;;5.20;99.90;;;;;;5074112;28;20449;-77
2022/11/26 04:24:44;;;;;;;33.65;6.90;;;5.20;99.90;;;;;;5093516;28;20052;-78
2022/11/26 04:27:10;;;;;;;37.33;6.90;;;5.20;99.90;;;;;;5077905;28;20040;-78
2022/11/26 04:29:36;;;;;;;42.47;7.32;;;5.20;99.90;;;;;;5107814;28;20084;-79
2022/11/26 04:32:03;;;;;;;32.95;7.72;;;5.20;99.90;;;;;;5067095;28;20118;-78
2022/11/26 04:34:29;;;;;;;30.65;7.20;;;5.20;99.90;;;;;;5070806;28;20041;-77
2022/11/26 04:36:55;;;;;;;23.13;6.65;;;5.20;99.90;;;;;;5053770;28;20041;-77
2022/11/26 04:39:20;;;;;;;31.38;7.78;;;5.20;99.90;;;;;;5053751;28;20056;-77
2022/11/26 04:41:46;;;;;;;32.85;6.97;;;5.10;99.90;;;;;;5087091;28;20037;-78
2022/11/26 04:44:12;;;;;;;31.88;7.93;;;5.10;99.90;;;;;;5070435;28;20048;-77
2022/11/26 04:46:37;;;;;;;26.58;6.95;;;5.10;99.90;;;;;;5068759;28;20105;-77
2022/11/26 04:49:03;;;;;;;33.40;8.50;;;5.10;99.90;;;;;;5090439;28;20052;-78
2022/11/26 04:51:29;;;;;;;28.63;7.35;;;5.10;99.90;;;;;;5092030;28;20497;-78
2022/11/26 04:53:55;;;;;;;27.13;7.55;;;5.20;99.90;;;;;;5086521;28;20049;-78
2022/11/26 04:56:20;;;;;;;33.25;8.60;;;5.10;99.90;;;;;;5071522;28;20045;-78
2022/11/26 04:58:46;;;;;;;40.83;8.38;;;5.10;99.90;;;;;;5070320;28;20056;-78
2022/11/26 05:01:12;;;;;;;38.10;8.25;;;5.10;99.90;;;;;;5104679;28;20055;-78
2022/11/26 05:03:37;;;;;;;33.53;7.18;;;5.10;99.90;;;;;;5074411;28;20051;-77
2022/11/26 05:06:03;;;;;;;36.25;8.88;;;5.10;99.90;;;;;;5104317;28;20083;-78
2022/11/26 05:08:29;;;;;;;29.90;7.85;;;5.10;99.90;;;;;;5071399;28;20047;-77
2022/11/26 05:10:55;;;;;;;35.90;8.48;;;5.10;99.90;;;;;;5074137;28;20480;-78
2022/11/26 05:13:22;;;;;;;33.00;8.13;;;5.20;99.90;;;;;;5088101;28;20048;-77
2022/11/26 05:15:48;;;;;;;34.30;8.82;;;5.10;99.90;;;;;;5073923;28;20120;-77
2022/11/26 05:18:13;;;;;;;39.22;9.13;;;5.20;99.90;;;;;;5066738;28;20942;-78
2022/11/26 05:20:39;;;;;;;39.63;8.98;;;5.10;99.90;;;;;;5098685;28;20041;-77
2022/11/26 05:23:05;;;;;;;33.13;8.90;;;5.00;99.90;;;;;;5052974;28;20044;-80
2022/11/26 05:25:30;;;;;;;35.85;7.85;;;5.10;99.90;;;;;;5069434;28;20136;-77
2022/11/26 05:27:56;;;;;;;38.28;8.27;;;5.00;99.90;;;;;;5069589;28;20052;-80
2022/11/26 05:30:22;;;;;;;32.35;8.57;;;5.00;99.90;;;;;;5103333;28;20037;-78
2022/11/26 05:32:47;;;;;;;44.90;8.75;;;5.10;99.90;;;;;;5073264;28;20064;-78
2022/11/26 05:35:13;;;;;;;45.33;8.98;;;5.00;99.90;;;;;;5089600;28;20141;-78
2022/11/26 05:37:39;;;;;;;31.95;8.73;;;5.10;99.90;;;;;;5076974;28;20138;-77
2022/11/26 05:40:06;;;;;;;33.75;9.13;;;5.20;99.90;;;;;;5053917;28;20131;-78
2022/11/26 05:42:31;;;;;;;43.55;9.93;;;5.20;99.90;;;;;;5069951;28;20045;-78
2022/11/26 05:44:57;;;;;;;45.42;10.10;;;5.20;99.90;;;;;;5072474;28;20057;-79
2022/11/26 05:47:23;;;;;;;31.50;8.57;;;5.20;99.90;;;;;;5065042;28;20041;-77
2022/11/26 05:49:48;;;;;;;43.55;10.00;;;5.30;99.90;;;;;;5056399;28;20056;-78
2022/11/26 05:52:14;;;;;;;36.40;9.25;;;5.30;99.90;;;;;;5072688;28;20055;-78
2022/11/26 05:54:40;;;;;;;39.88;10.10;;;5.40;99.90;;;;;;5061192;28;20496;-77
2022/11/26 05:57:06;;;;;;;39.75;9.32;;;5.40;99.90;;;;;;5052232;28;20098;-77
2022/11/26 05:59:31;;;;;;;41.85;9.23;;;5.50;99.90;;;;;;5086019;28;20098;-78
2022/11/26 06:01:57;;;;;;;51.53;9.82;;;5.60;99.90;;;;;;5058075;28;20040;-77
2022/11/26 06:04:23;;;;;;;39.35;10.85;;;5.60;99.90;;;;;;5089415;28;20054;-78
2022/11/26 06:06:48;;;;;;;42.35;10.00;;;5.50;99.90;;;;;;5089390;28;20053;-77
2022/11/26 06:09:14;;;;;;;45.45;9.68;;;5.60;99.90;;;;;;5072828;28;20117;-78
2022/11/26 06:11:40;;;;;;;40.88;9.30;;;5.50;99.90;;;;;;5064294;28;20086;-78
2022/11/26 06:14:05;;;;;;;49.63;10.23;;;5.50;99.90;;;;;;5065138;28;20051;-78
2022/11/26 06:16:31;;;;;;;43.58;10.05;;;5.50;99.90;;;;;;5071172;28;20079;-77
2022/11/26 06:18:58;;;;;;;39.53;9.73;;;5.60;99.90;;;;;;5088673;28;20672;-77
2022/11/26 06:21:23;;;;;;;39.90;9.82;;;5.50;99.90;;;;;;5089045;28;20045;-77
2022/11/26 06:23:49;;;;;;;37.20;9.77;;;5.50;99.90;;;;;;5077894;28;20090;-77
2022/11/26 06:26:15;;;;;;;50.10;10.32;;;5.40;99.90;;;;;;5072085;28;20044;-78
2022/11/26 06:28:40;;;;;;;40.65;9.82;;;5.50;99.90;;;;;;5072985;28;20170;-77
2022/11/26 06:31:08;;;;;;;42.63;10.27;;;5.50;99.90;;;;;;5071327;28;20476;-78
2022/11/26 06:33:35;;;;;;;40.03;10.02;;;5.60;99.90;;;;;;5071689;28;20127;-77
2022/11/26 06:36:02;;;;;;;49.65;12.60;;;5.50;99.90;;;;;;5058832;28;20090;-78
2022/11/26 06:38:28;;;;;;;51.92;10.07;;;5.50;99.90;;;;;;5102926;28;20124;-78
2022/11/26 06:41:02;;;;;;;44.40;11.45;;;5.50;99.90;;;;;;5070968;28;20119;-77
2022/11/26 06:43:29;;;;;;;41.58;10.50;;;5.50;99.90;;;;;;5056149;28;20060;-77
2022/11/26 06:46:00;;;;;;;44.15;10.98;;;5.50;99.90;;;;;;5068283;28;20049;-78
2022/11/26 06:48:25;;;;;;;42.42;10.55;;;5.50;99.90;;;;;;5051413;28;20067;-78
2022/11/26 06:50:51;;;;;;;50.95;10.93;;;5.50;99.90;;;;;;5035160;28;20564;-78
2022/11/26 06:53:18;;;;;;;42.42;10.98;;;5.50;99.90;;;;;;5100430;28;20052;-78
2022/11/26 06:55:43;;;;;;;34.70;10.32;;;5.50;99.90;;;;;;5052026;28;20055;-77
2022/11/26 06:58:09;;;;;;;40.90;10.95;;;5.50;99.90;;;;;;5046770;28;20119;-78
2022/11/26 07:00:35;;;;;;;40.13;10.63;;;5.50;99.90;;;;;;5072697;28;20036;-78
2022/11/26 07:03:00;;;;;;;44.47;11.52;;;5.50;99.90;;;;;;5071128;28;20044;-78
2022/11/26 07:05:26;;;;;;;48.20;11.73;;;5.40;99.90;;;;;;5075040;28;20053;-78
2022/11/26 07:07:52;;;;;;;48.30;12.88;;;5.50;99.90;;;;;;5060998;28;20044;-78
2022/11/26 07:10:19;;;;;;;45.67;11.90;;;5.50;99.90;;;;;;5060459;28;20140;-78
2022/11/26 07:12:44;;;;;;;42.80;11.90;;;5.50;99.90;;;;;;5067239;28;20049;-78
2022/11/26 07:15:10;;;;;;;38.50;11.50;;;5.40;99.90;;;;;;5055255;28;20140;-84
2022/11/26 07:17:36;;;;;;;55.55;12.98;;;5.40;99.90;;;;;;5055223;28;20084;-78
2022/11/26 07:20:02;;;;;;;42.45;11.63;;;5.50;99.90;;;;;;5055455;28;20461;-78
2022/11/26 07:22:28;;;;;;;43.55;12.50;;;5.40;99.90;;;;;;5055052;28;20049;-78
2022/11/26 07:24:54;;;;;;;48.22;12.32;;;5.40;99.90;;;;;;5038583;28;20055;-78
2022/11/26 07:27:19;;;;;;;41.85;12.07;;;5.40;99.90;;;;;;5068281;28;20055;-78
2022/11/26 07:29:45;;;;;;;43.90;11.35;;;5.40;99.90;;;;;;5093652;28;20113;-78
2022/11/26 07:32:11;;;;;;;47.58;12.68;;;5.40;99.90;;;;;;5074315;28;20094;-78
2022/11/26 07:34:36;;;;;;;51.22;12.90;;;5.50;99.90;;;;;;5077539;28;20051;-77
2022/11/26 07:37:02;;;;;;;44.42;11.75;;;5.50;99.90;;;;;;5056173;28;20045;-78
2022/11/26 07:39:28;;;;;;;44.28;12.15;;;5.40;99.90;;;;;;5065867;28;20382;-79
2022/11/26 07:41:54;;;;;;;39.53;12.93;;;5.40;99.90;;;;;;5060160;28;20041;-78
2022/11/26 07:44:19;;;;;;;50.05;12.85;;;5.50;99.90;;;;;;5029432;28;20095;-77
2022/11/26 07:46:45;;;;;;;48.97;13.88;;;5.40;99.90;;;;;;5088718;28;20099;-76
2022/11/26 07:49:12;;;;;;;46.20;12.98;;;5.40;99.90;;;;;;5056312;28;20588;-77
2022/11/26 07:51:38;;;;;;;47.88;13.05;;;5.40;99.90;;;;;;5055948;28;20049;-77
2022/11/26 07:54:06;;;;;;;48.20;12.57;;;5.50;99.90;;;;;;5070010;28;20055;-77
2022/11/26 07:56:31;;;;;;;48.85;12.15;;;5.50;99.90;;;;;;5074683;28;20047;-77
2022/11/26 07:58:57;;;;;;;47.63;13.18;;;5.50;99.90;;;;;;5074930;28;20048;-77
2022/11/26 08:01:27;;;;;;;38.22;12.43;;;5.50;99.90;;;;;;5108227;28;20048;-78
2022/11/26 08:03:52;;;;;;;50.38;11.88;;;5.50;99.90;;;;;;5057725;28;20049;-77
2022/11/26 08:06:21;;;;;;;51.53;12.40;;;5.60;99.90;;;;;;5074070;28;20051;-80
2022/11/26 08:08:47;;;;;;;44.58;12.60;;;5.60;99.90;;;;;;5074507;28;20049;-78
2022/11/26 08:11:20;;;;;;;47.15;13.20;;;5.70;99.90;;;;;;5074328;28;20048;-78
2022/11/26 08:13:47;;;;;;;39.28;11.80;;;5.70;99.90;;;;;;5073652;28;20049;-84
2022/11/26 08:16:13;;;;;;;44.70;12.13;;;5.70;99.90;;;;;;5101079;28;20044;-77
2022/11/26 08:18:39;;;;;;;47.85;11.68;;;5.70;99.90;;;;;;5094296;28;20113;-78
2022/11/26 08:21:06;;;;;;;38.22;11.35;;;5.80;99.90;;;;;;5094527;28;20044;-78
2022/11/26 08:23:32;;;;;;;36.95;11.50;;;5.80;99.90;;;;;;5090050;28;20041;-78
2022/11/26 08:26:03;;;;;;;40.97;11.65;;;5.80;99.90;;;;;;5075074;28;20044;-78
2022/11/26 08:28:29;;;;;;;36.92;10.80;;;5.90;99.90;;;;;;5054603;28;20179;-78
2022/11/26 08:31:06;;;;;;;34.78;12.27;;;5.90;99.90;;;;;;5037774;28;20448;-78
2022/11/26 08:33:33;;;;;;;33.50;11.23;;;6.00;99.90;;;;;;5070105;28;20057;-78
2022/11/26 08:35:59;;;;;;;38.13;12.38;;;6.10;99.90;;;;;;5053931;28;20131;-77
2022/11/26 08:38:26;;;;;;;41.85;13.32;;;6.10;99.90;;;;;;5052653;28;20127;-78
2022/11/26 08:40:53;;;;;;;49.55;12.95;;;6.10;99.90;;;;;;5057451;28;20059;-78
2022/11/26 08:43:21;;;;;;;43.20;13.50;;;6.20;99.90;;;;;;5073944;28;20090;-77
2022/11/26 08:45:54;;;;;;;40.28;12.43;;;6.30;99.90;;;;;;5082565;28;20484;-78
2022/11/26 08:48:21;;;;;;;35.63;12.82;;;6.30;99.90;;;;;;5060809;28;20054;-78
2022/11/26 08:50:47;;;;;;;39.70;12.98;;;6.30;99.90;;;;;;5076983;28;20076;-77
2022/11/26 08:53:13;;;;;;;37.97;12.05;;;6.50;99.90;;;;;;5040600;28;20084;-78
2022/11/26 08:55:39;;;;;;;37.67;11.18;;;6.50;99.90;;;;;;5075003;28;20036;-81
2022/11/26 08:58:04;;;;;;;34.60;11.30;;;6.60;99.90;;;;;;5057360;28;20055;-78
2022/11/26 09:00:30;;;;;;;31.52;10.95;;;6.60;99.90;;;;;;5073310;28;20045;-78
2022/11/26 09:02:56;;;;;;;40.88;11.43;;;6.70;99.90;;;;;;5073373;28;20567;-78
2022/11/26 09:05:21;;;;;;;37.00;11.65;;;6.80;99.90;;;;;;5073242;28;20094;-77
2022/11/26 09:07:47;;;;;;;33.55;10.75;;;6.80;99.90;;;;;;5073036;28;20048;-78
2022/11/26 09:10:13;;;;;;;42.00;11.38;;;6.90;99.90;;;;;;5077688;28;20055;-81
2022/11/26 09:12:39;;;;;;;35.20;11.20;;;6.90;99.90;;;;;;5110608;28;20044;-89
2022/11/26 09:15:05;;;;;;;40.65;11.98;;;6.90;99.90;;;;;;5061318;28;20059;-89
2022/11/26 09:17:31;;;;;;;40.22;12.73;;;7.00;99.90;;;;;;5049947;28;20056;-81
2022/11/26 09:19:56;;;;;;;34.53;10.85;;;7.20;99.90;;;;;;5056195;28;20044;-79
2022/11/26 09:22:23;;;;;;;37.97;11.52;;;7.10;99.90;;;;;;5058343;28;20056;-80
2022/11/26 09:24:48;;;;;;;35.90;11.77;;;7.10;99.90;;;;;;5106443;28;20049;-80
2022/11/26 09:27:14;;;;;;;40.33;11.38;;;7.20;99.90;;;;;;5056268;28;20146;-79
2022/11/26 09:29:40;;;;;;;36.50;11.32;;;7.20;99.90;;;;;;5056540;28;20044;-80
2022/11/26 09:32:08;;;;;;;36.05;11.55;;;7.30;99.90;;;;;;5071747;28;20143;-83
2022/11/26 09:34:36;;;;;;;30.48;11.15;;;7.30;99.90;;;;;;5075622;28;20048;-80
2022/11/26 09:37:02;;;;;;;39.53;11.38;;;7.30;99.90;;;;;;5032725;28;20051;-81
2022/11/26 09:39:28;;;;;;;32.13;11.30;;;7.30;99.90;;;;;;5067282;28;20048;-79
2022/11/26 09:42:12;;;;;;;36.42;11.05;;;7.40;99.90;;;;;;5069878;28;20051;-82
2022/11/26 09:44:54;;;;;;;39.35;11.35;;;7.30;99.90;;;;;;5082695;28;20427;-83
2022/11/26 09:47:24;;;;;;;45.55;12.15;;;7.30;99.90;;;;;;5070427;28;20048;-81
2022/11/26 09:50:01;;;;;;;33.60;11.70;;;7.40;99.90;;;;;;5054582;28;20083;-79
2022/11/26 09:52:54;;;;;;;39.63;11.52;;;7.40;99.90;;;;;;5063047;28;20094;-79
2022/11/26 09:55:30;;;;;;;34.65;11.68;;;7.50;99.90;;;;;;5067148;28;20051;-80
2022/11/26 09:58:11;;;;;;;42.67;13.35;;;7.50;99.90;;;;;;5087364;28;20056;-82
2022/11/26 10:00:46;;;;;;;29.73;11.45;;;7.50;99.90;;;;;;5075672;28;20067;-79
2022/11/26 10:03:17;;;;;;;42.83;12.57;;;7.50;99.90;;;;;;5067976;28;20052;-79
2022/11/26 10:05:46;;;;;;;38.33;11.50;;;7.60;99.90;;;;;;5106742;27;20121;-79
2022/11/26 10:08:42;;;;;;;31.90;13.00;;;7.60;99.90;;;;;;5086561;28;20476;-79
2022/11/26 10:11:26;;;;;;;46.25;13.45;;;7.60;99.90;;;;;;5093100;28;20097;-80
2022/11/26 10:14:33;;;;;;;35.30;12.13;;;7.70;99.90;;;;;;5077386;28;20129;-79
2022/11/26 10:17:27;;;;;;;33.08;11.05;;;7.70;99.90;;;;;;5054558;28;20094;-78
2022/11/26 10:20:07;;;;;;;42.63;11.43;;;7.80;99.90;;;;;;5071250;28;20105;-81
2022/11/26 10:22:44;;;;;;;32.45;11.63;;;7.80;99.90;;;;;;5063053;28;20044;-78
2022/11/26 10:25:19;;;;;;;40.10;12.63;;;7.90;99.90;;;;;;5072509;28;20131;-80
2022/11/26 10:27:47;;;;;;;34.05;11.88;;;8.00;99.90;;;;;;5074550;28;20048;-79
2022/11/26 10:30:20;;;;;;;47.47;13.02;;;8.00;99.90;;;;;;5125741;27;20063;-81
2022/11/26 10:32:48;;;;;;;40.20;12.85;;;8.10;99.90;;;;;;5092518;28;20073;-80
2022/11/26 10:35:32;;;;;;;44.75;12.65;;;8.10;99.90;;;;;;5051843;28;20052;-80
2022/11/26 10:37:57;;;;;;;38.78;13.15;;;8.10;99.90;;;;;;5076127;28;20048;-80
2022/11/26 10:40:31;;;;;;;36.92;11.85;;;8.20;99.90;;;;;;5074321;28;20112;-80
2022/11/26 10:43:08;;;;;;;32.00;12.98;;;8.20;99.90;;;;;;5080867;28;20041;-81
2022/11/26 10:45:44;;;;;;;40.47;13.18;;;8.20;99.90;;;;;;5067729;28;20045;-80
2022/11/26 10:48:24;;;;;;;;;;;8.30;99.90;;;;;;5084786;28;20048;-81
2022/11/26 10:51:05;;;;;;;31.75;12.20;;;8.40;99.90;;;;;;5080014;28;19927;-84
2022/11/26 10:53:54;;;;;;;41.65;14.23;;;8.40;99.90;;;;;;5069870;28;20060;-80
2022/11/26 10:56:25;;;;;;;40.13;13.13;;;8.40;99.90;;;;;;5070967;28;20067;-79
2022/11/26 10:58:52;;;;;;;39.67;13.50;;;8.40;99.90;;;;;;5061011;28;20045;-79
2022/11/26 11:01:19;;;;;;;38.85;12.65;;;8.50;99.90;;;;;;5042798;28;20075;-79
2022/11/26 11:03:52;;;;;;;42.10;13.73;;;8.50;99.90;;;;;;5065391;28;20057;-80
2022/11/26 11:06:17;;;;;;;35.90;12.90;;;8.50;99.90;;;;;;5070306;28;20385;-80
2022/11/26 11:08:48;;;;;;;34.50;13.73;;;8.60;99.90;;;;;;5048329;28;20131;-79
2022/11/26 11:11:24;;;;;;;38.15;13.52;;;8.70;99.90;;;;;;5062587;28;20112;-79
2022/11/26 11:13:50;;;;;;;39.60;13.97;;;8.80;99.90;;;;;;5058593;28;20049;-79
2022/11/26 11:16:37;;;;;;;30.55;12.30;;;8.90;99.90;;;;;;5085104;28;20063;-80
2022/11/26 11:19:15;;;;;;;40.70;13.00;;;9.00;99.90;;;;;;5080472;28;20054;-80
2022/11/26 11:21:43;;;;;;;34.40;12.68;;;9.00;99.90;;;;;;5091974;28;20110;-79
2022/11/26 11:24:26;;;;;;;38.65;13.40;;;9.10;99.90;;;;;;5053901;28;20105;-79
2022/11/26 11:26:55;;;;;;;37.72;12.50;;;9.20;99.90;;;;;;5070003;28;20540;-80
2022/11/26 11:29:37;;;;;;;31.58;11.30;;;9.30;99.90;;;;;;5071011;28;20060;-79
2022/11/26 11:32:08;;;;;;;38.22;11.13;;;9.50;99.90;;;;;;5071198;28;20094;-79
2022/11/26 11:34:41;;;;;;;32.83;10.57;;;9.40;99.90;;;;;;5073581;28;20044;-80
2022/11/26 11:37:21;;;;;;;36.25;10.48;;;9.60;99.90;;;;;;5054604;28;20128;-80
2022/11/26 11:40:14;;;;;;;24.40;9.27;;;9.90;99.90;;;;;;5050941;28;20036;-79
2022/11/26 11:42:40;;;;;;;27.45;8.55;;;10.20;99.90;;;;;;5075103;28;20071;-79
2022/11/26 11:45:21;;;;;;;28.70;8.27;;;10.50;99.90;;;;;;5065551;28;20080;-79
2022/11/26 11:47:51;;;;;;;31.83;8.95;;;10.50;99.90;;;;;;5070772;28;20047;-79
2022/11/26 11:50:17;;;;;;;25.83;9.02;;;10.40;99.90;;;;;;5072113;28;20056;-80
2022/11/26 11:53:06;;;;;;;29.08;8.50;;;10.20;99.90;;;;;;5074663;28;20049;-82
2022/11/26 11:55:47;;;;;;;26.70;8.40;;;10.10;99.90;;;;;;5074772;28;20045;-79
2022/11/26 11:58:41;;;;;;;32.28;10.40;;;10.00;99.90;;;;;;5072508;28;20282;-79
2022/11/26 12:01:24;;;;;;;28.98;8.88;;;9.90;99.90;;;;;;5053447;28;20045;-79
2022/11/26 12:04:20;;;;;;;26.25;9.38;;;9.90;99.90;;;;;;5065834;28;20139;-79
2022/11/26 12:07:18;;;;;;;27.35;9.65;;;9.90;99.90;;;;;;5086432;28;20059;-79
2022/11/26 12:09:50;;;;;;;26.55;8.85;;;10.10;99.90;;;;;;5084797;28;20057;-88
2022/11/26 12:12:34;;;;;;;28.52;9.20;;;10.30;99.90;;;;;;5071191;28;20048;-79
2022/11/26 12:15:25;;;;;;;32.20;9.88;;;10.60;99.90;;;;;;5069585;28;20416;-79
2022/11/26 12:18:19;;;;;;;26.90;8.40;;;10.80;99.90;;;;;;5076764;28;20403;-79
2022/11/26 12:20:55;;;;;;;28.00;9.63;;;10.80;99.90;;;;;;5080628;28;20369;-88
2022/11/26 12:23:30;;;;;;;25.75;8.70;;;10.80;99.90;;;;;;5073547;28;20059;-78
2022/11/26 12:26:22;;;;;;;21.50;8.50;;;10.80;99.90;;;;;;5072905;28;20052;-78
2022/11/26 12:28:56;;;;;;;33.38;9.40;;;10.60;99.90;;;;;;5104001;28;20404;-81
2022/11/26 12:31:46;;;;;;;34.97;9.73;;;10.50;99.90;;;;;;5072581;28;20052;-83
2022/11/26 12:34:27;;;;;;;31.70;10.07;;;10.40;99.90;;;;;;5085832;28;20048;-78
2022/11/26 12:37:04;;;;;;;25.42;9.68;;;10.30;99.90;;;;;;5057444;28;20493;-80
2022/11/26 12:39:43;;;;;;;29.60;10.40;;;10.10;99.90;;;;;;5074493;28;20055;-78
2022/11/26 12:42:24;;;;;;;28.35;9.55;;;10.10;99.90;;;;;;5071856;28;20045;-79
2022/11/26 12:44:51;;;;;;;31.52;10.55;;;10.00;99.90;;;;;;5074188;28;20040;-79
2022/11/26 12:47:27;;;;;;;35.83;10.60;;;9.90;99.90;;;;;;5074423;28;20048;-79
2022/11/26 12:50:11;;;;;;;27.27;9.68;;;9.90;99.90;;;;;;5074056;28;20049;-79
2022/11/26 12:52:57;;;;;;;34.10;11.00;;;9.80;99.90;;;;;;5073188;28;20393;-79
2022/11/26 12:55:42;;;;;;;30.63;10.47;;;9.70;99.90;;;;;;5053143;28;20576;-78
2022/11/26 12:58:50;;;;;;;28.58;10.13;;;9.70;99.90;;;;;;5052651;28;20049;-79
2022/11/26 13:01:16;;;;;;;29.77;10.27;;;9.80;99.90;;;;;;5025831;28;20555;-80